createdAt,value
2023-04-05T00:01:08.217Z,95599.19
2023-04-05T00:03:36.431Z,95599.78
2023-04-05T00:06:05.549Z,95591.31
2023-04-05T00:08:33.471Z,95596.78
2023-04-05T00:11:02.634Z,95589.13
2023-04-05T00:13:30.569Z,95591.75
2023-04-05T00:16:01.066Z,95579.75
2023-04-05T00:18:34.282Z,95586.16
2023-04-05T00:21:02.548Z,95582.59
2023-04-05T00:23:37.484Z,95579.97
2023-04-05T00:26:06.811Z,95586.06
2023-04-05T00:28:36.039Z,95575.84
2023-04-05T00:31:05.166Z,95574.72
2023-04-05T00:33:34.804Z,95579.66
2023-04-05T00:36:13.327Z,95577.81
2023-04-05T00:38:42.188Z,95581.00
2023-04-05T00:41:12.389Z,95577.81
2023-04-05T00:43:41.005Z,95577.03
2023-04-05T00:46:09.465Z,95576.66
2023-04-05T00:48:37.456Z,95562.91
2023-04-05T00:51:09.274Z,95559.84
2023-04-05T00:53:37.892Z,95570.06
2023-04-05T00:56:06.290Z,95560.66
2023-04-05T00:58:35.442Z,95560.22
2023-04-05T01:01:07.529Z,95549.28
2023-04-05T01:03:37.103Z,95552.38
2023-04-05T01:06:18.798Z,95551.44
2023-04-05T01:09:09.422Z,95548.22
2023-04-05T01:11:41.350Z,95539.25
2023-04-05T01:14:10.566Z,95542.78
2023-04-05T01:16:38.367Z,95542.56
2023-04-05T01:19:06.412Z,95533.66
2023-04-05T01:22:05.968Z,95534.47
2023-04-05T01:24:52.989Z,95541.88
2023-04-05T01:27:26.014Z,95536.84
2023-04-05T01:30:04.711Z,95527.09
2023-04-05T01:32:56.324Z,95535.06
2023-04-05T01:35:38.745Z,95529.50
2023-04-05T01:38:10.851Z,95526.13
2023-04-05T01:40:42.336Z,95520.13
2023-04-05T01:43:15.017Z,95519.44
2023-04-05T01:45:44.726Z,95514.84
2023-04-05T01:48:14.298Z,95511.66
2023-04-05T01:50:42.314Z,95499.09
2023-04-05T01:53:10.550Z,95504.13
2023-04-05T01:55:38.464Z,95499.94
2023-04-05T01:58:06.282Z,95502.69
2023-04-05T02:00:34.162Z,95500.56
2023-04-05T02:03:03.524Z,95501.97
2023-04-05T02:05:31.420Z,95488.38
2023-04-05T02:07:59.224Z,95502.63
2023-04-05T02:10:27.051Z,95490.81
2023-04-05T02:12:56.638Z,95491.84
2023-04-05T02:15:24.414Z,95496.66
2023-04-05T02:17:54.103Z,95491.72
2023-04-05T02:20:25.884Z,95489.31
2023-04-05T02:22:53.767Z,95492.72
2023-04-05T02:25:22.280Z,95499.25
2023-04-05T02:27:50.246Z,95490.81
2023-04-05T02:30:18.059Z,95491.00
2023-04-05T02:32:46.020Z,95481.78
2023-04-05T02:35:13.953Z,95476.97
2023-04-05T02:37:43.170Z,95486.13
2023-04-05T02:40:15.183Z,95471.38
2023-04-05T02:42:43.266Z,95470.34
2023-04-05T02:45:14.046Z,95472.16
2023-04-05T02:47:41.821Z,95475.47
2023-04-05T02:50:09.805Z,95466.78
2023-04-05T02:52:44.696Z,95466.44
2023-04-05T02:55:12.723Z,95460.06
2023-04-05T02:57:40.634Z,95458.09
2023-04-05T03:00:22.307Z,95459.00
2023-04-05T03:02:50.966Z,95461.94
2023-04-05T03:05:20.657Z,95455.97
2023-04-05T03:07:52.972Z,95459.63
2023-04-05T03:10:28.918Z,95468.09
2023-04-05T03:13:03.108Z,95461.38
2023-04-05T03:15:33.379Z,95459.47
2023-04-05T03:18:07.023Z,95463.69
2023-04-05T03:20:40.124Z,95456.91
2023-04-05T03:23:12.223Z,95460.28
2023-04-05T03:25:42.484Z,95456.75
2023-04-05T03:28:11.134Z,95461.63
2023-04-05T03:30:42.591Z,95460.31
2023-04-05T03:33:18.451Z,95464.59
2023-04-05T03:35:49.591Z,95457.25
2023-04-05T03:38:19.278Z,95459.25
2023-04-05T03:41:06.789Z,95443.41
2023-04-05T03:43:36.092Z,95457.13
2023-04-05T03:46:04.014Z,95452.31
2023-04-05T03:48:32.424Z,95445.47
2023-04-05T03:51:00.426Z,95452.88
2023-04-05T03:53:29.625Z,95453.56
2023-04-05T03:55:58.294Z,95452.19
2023-04-05T03:58:41.715Z,95443.88
2023-04-05T04:01:11.423Z,95448.44
2023-04-05T04:03:39.312Z,95446.94
2023-04-05T04:06:08.773Z,95447.75
2023-04-05T04:08:38.090Z,95442.34
2023-04-05T04:11:06.510Z,95436.13
2023-04-05T04:13:39.768Z,95453.66
2023-04-05T04:16:16.098Z,95441.44
2023-04-05T04:18:54.989Z,95444.84
2023-04-05T04:21:24.885Z,95447.34
2023-04-05T04:24:18.936Z,95438.75
2023-04-05T04:27:10.737Z,95446.72
2023-04-05T04:29:56.680Z,95446.28
2023-04-05T04:35:29.515Z,95438.63
2023-04-05T04:38:20.540Z,95449.94
2023-04-05T04:41:12.548Z,95445.84
2023-04-05T04:44:02.801Z,95443.66
2023-04-05T04:46:43.345Z,95444.84
2023-04-05T04:49:37.105Z,95443.97
2023-04-05T04:52:06.517Z,95443.13
2023-04-05T04:54:36.407Z,95450.06
2023-04-05T04:57:04.367Z,95448.72
2023-04-05T04:59:32.929Z,95433.50
2023-04-05T05:02:03.568Z,95449.91
2023-04-05T05:04:31.683Z,95440.47
2023-04-05T05:06:59.557Z,95442.78
2023-04-05T05:09:28.743Z,95445.66
2023-04-05T05:12:01.249Z,95457.94
2023-04-05T05:14:29.184Z,95456.53
2023-04-05T05:16:59.159Z,95444.56
2023-04-05T05:19:29.986Z,95446.03
2023-04-05T05:21:58.348Z,95448.44
2023-04-05T05:24:26.320Z,95451.50
2023-04-05T05:26:55.643Z,95442.09
2023-04-05T05:29:23.519Z,95451.94
2023-04-05T05:31:54.269Z,95460.38
2023-04-05T05:34:22.627Z,95456.13
2023-04-05T05:36:54.656Z,95459.78
2023-04-05T05:39:23.549Z,95459.44
2023-04-05T05:41:51.625Z,95463.19
2023-04-05T05:44:20.774Z,95460.22
2023-04-05T05:46:48.721Z,95466.47
2023-04-05T05:49:18.544Z,95460.81
2023-04-05T05:51:46.439Z,95460.72
2023-04-05T05:54:14.447Z,95467.34
2023-04-05T05:56:42.320Z,95471.09
2023-04-05T05:59:10.675Z,95478.91
2023-04-05T06:01:42.675Z,95465.50
2023-04-05T06:04:10.794Z,95465.38
2023-04-05T06:06:39.035Z,95461.25
2023-04-05T06:09:07.053Z,95467.56
2023-04-05T06:11:38.852Z,95468.44
2023-04-05T06:14:09.055Z,95465.28
2023-04-05T06:16:37.023Z,95475.38
2023-04-05T06:19:06.410Z,95479.25
2023-04-05T06:21:34.284Z,95480.91
2023-04-05T06:24:02.270Z,95478.19
2023-04-05T06:26:30.486Z,95475.09
2023-04-05T06:28:59.899Z,95466.72
2023-04-05T06:31:33.488Z,95475.00
2023-04-05T06:34:01.771Z,95474.94
2023-04-05T06:36:34.188Z,95476.41
2023-04-05T06:39:02.284Z,95482.16
2023-04-05T06:41:30.179Z,95473.44
2023-04-05T06:43:58.062Z,95476.13
2023-04-05T06:46:26.561Z,95479.06
2023-04-05T06:48:54.628Z,95469.59
2023-04-05T06:51:22.521Z,95478.75
2023-04-05T06:53:51.820Z,95481.13
2023-04-05T06:56:19.720Z,95458.88
2023-04-05T06:58:47.939Z,95481.31
2023-04-05T07:01:17.461Z,95464.75
2023-04-05T07:03:45.518Z,95467.13
2023-04-05T07:06:13.600Z,95471.03
2023-04-05T07:08:42.009Z,95468.63
2023-04-05T07:11:11.479Z,95463.72
2023-04-05T07:13:39.577Z,95468.22
2023-04-05T07:16:08.061Z,95477.19
2023-04-05T07:18:36.043Z,95461.13
2023-04-05T07:21:04.839Z,95457.31
2023-04-05T07:23:32.859Z,95461.47
2023-04-05T07:26:04.450Z,95462.81
2023-04-05T07:28:35.630Z,95467.06
2023-04-05T07:31:04.655Z,95468.69
2023-04-05T07:33:32.929Z,95466.69
2023-04-05T07:36:01.556Z,95475.84
2023-04-05T07:38:30.203Z,95475.84
2023-04-05T07:40:58.708Z,95476.00
2023-04-05T07:43:27.096Z,95469.50
2023-04-05T07:46:02.540Z,95484.66
2023-04-05T07:48:30.985Z,95476.56
2023-04-05T07:51:03.822Z,95484.13
2023-04-05T07:53:31.739Z,95487.19
2023-04-05T07:56:00.189Z,95481.88
2023-04-05T07:58:30.511Z,95494.78
2023-04-05T08:01:02.154Z,95489.06
2023-04-05T08:03:30.416Z,95483.72
2023-04-05T08:05:58.782Z,95489.44
2023-04-05T08:08:26.644Z,95489.31
2023-04-05T08:10:54.486Z,95485.75
2023-04-05T08:13:22.294Z,95482.56
2023-04-05T08:15:50.116Z,95490.66
2023-04-05T08:18:19.447Z,95485.81
2023-04-05T08:20:52.289Z,95490.41
2023-04-05T08:23:20.195Z,95475.94
2023-04-05T08:25:48.251Z,95489.31
2023-04-05T08:28:16.229Z,95491.78
2023-04-05T08:30:45.282Z,95490.59
2023-04-05T08:33:13.663Z,95485.44
2023-04-05T08:35:44.414Z,95480.22
2023-04-05T08:38:12.885Z,95465.78
2023-04-05T08:40:43.444Z,95482.19
2023-04-05T08:43:14.137Z,95476.19
2023-04-05T08:45:49.278Z,95476.69
2023-04-05T08:48:17.366Z,95489.66
2023-04-05T08:50:52.717Z,95475.97
2023-04-05T08:53:20.955Z,95473.84
2023-04-05T08:55:51.855Z,95479.00
2023-04-05T08:58:23.334Z,95476.19
2023-04-05T09:00:52.030Z,95482.75
2023-04-05T09:03:24.129Z,95474.69
2023-04-05T09:05:54.474Z,95482.00
2023-04-05T09:08:22.469Z,95481.56
2023-04-05T09:10:52.086Z,95481.66
2023-04-05T09:13:20.068Z,95478.84
2023-04-05T09:15:48.061Z,95478.88
2023-04-05T09:18:26.154Z,95478.22
2023-04-05T09:21:03.994Z,95476.06
2023-04-05T09:23:32.108Z,95472.56
2023-04-05T09:25:59.998Z,95481.06
2023-04-05T09:28:42.486Z,95474.63
2023-04-05T09:31:10.615Z,95468.75
2023-04-05T09:33:38.842Z,95468.91
2023-04-05T09:36:08.606Z,95465.97
2023-04-05T09:38:47.632Z,95473.59
2023-04-05T09:41:15.542Z,95472.66
2023-04-05T09:43:43.683Z,95480.66
2023-04-05T09:46:34.080Z,95471.13
2023-04-05T09:49:03.996Z,95472.09
2023-04-05T09:51:37.487Z,95468.75
2023-04-05T09:54:08.949Z,95470.44
2023-04-05T09:56:39.778Z,95465.31
2023-04-05T09:59:09.558Z,95470.09
2023-04-05T10:01:39.888Z,95472.47
2023-04-05T10:04:09.219Z,95463.81
2023-04-05T10:06:39.830Z,95458.94
2023-04-05T10:09:09.504Z,95465.59
2023-04-05T10:11:39.002Z,95452.06
2023-04-05T10:14:08.752Z,95467.50
2023-04-05T10:16:46.376Z,95450.47
2023-04-05T10:19:22.515Z,95462.41
2023-04-05T10:21:55.292Z,95450.00
2023-04-05T10:24:36.755Z,95455.88
2023-04-05T10:27:07.342Z,95450.00
2023-04-05T10:29:43.407Z,95452.75
2023-04-05T10:32:18.712Z,95447.44
2023-04-05T10:34:55.428Z,95457.34
2023-04-05T10:37:31.555Z,95451.13
2023-04-05T10:40:04.622Z,95448.44
2023-04-05T10:42:39.778Z,95445.88
2023-04-05T10:45:11.605Z,95453.97
2023-04-05T10:47:45.991Z,95432.66
2023-04-05T10:50:21.306Z,95446.88
2023-04-05T10:52:52.140Z,95430.59
2023-04-05T10:55:21.153Z,95432.56
2023-04-05T10:57:50.759Z,95428.66
2023-04-05T11:00:19.759Z,95424.53
2023-04-05T11:02:49.887Z,95429.09
2023-04-05T11:05:32.676Z,95429.28
2023-04-05T11:08:05.838Z,95426.91
2023-04-05T11:10:36.360Z,95426.69
2023-04-05T11:13:08.887Z,95423.78
2023-04-05T11:15:37.682Z,95425.56
2023-04-05T11:18:10.659Z,95422.09
2023-04-05T11:20:46.134Z,95422.94
2023-04-05T11:23:16.801Z,95417.78
2023-04-05T11:25:51.169Z,95418.03
2023-04-05T11:28:30.268Z,95417.81
2023-04-05T11:30:59.554Z,95414.03
2023-04-05T11:34:05.273Z,95414.84
2023-04-05T11:36:38.196Z,95411.56
2023-04-05T11:39:27.314Z,95414.00
2023-04-05T11:42:01.186Z,95411.56
2023-04-05T11:44:30.395Z,95407.06
2023-04-05T11:46:58.382Z,95401.16
2023-04-05T11:49:26.767Z,95406.88
2023-04-05T11:51:54.939Z,95401.16
2023-04-05T11:54:36.365Z,95400.63
2023-04-05T11:57:04.304Z,95396.94
2023-04-05T11:59:33.958Z,95393.16
2023-04-05T12:02:03.950Z,95387.56
2023-04-05T12:04:32.094Z,95383.53
2023-04-05T12:07:13.401Z,95385.06
2023-04-05T12:10:03.162Z,95382.25
2023-04-05T12:12:36.035Z,95383.25
2023-04-05T12:15:04.370Z,95387.88
2023-04-05T12:17:45.584Z,95389.16
2023-04-05T12:20:14.908Z,95386.72
2023-04-05T12:22:44.703Z,95385.16
2023-04-05T12:25:14.667Z,95381.88
2023-04-05T12:27:43.000Z,95379.81
2023-04-05T12:30:15.737Z,95377.94
2023-04-05T12:32:48.142Z,95384.13
2023-04-05T12:35:20.183Z,95380.88
2023-04-05T12:37:48.109Z,95371.13
2023-04-05T12:40:21.873Z,95377.25
2023-04-05T12:42:49.831Z,95385.16
2023-04-05T12:45:18.502Z,95386.63
2023-04-05T12:47:51.358Z,95380.00
2023-04-05T12:50:26.022Z,95372.63
2023-04-05T12:52:58.669Z,95357.63
2023-04-05T12:55:29.328Z,95378.72
2023-04-05T12:58:00.405Z,95360.06
2023-04-05T13:00:29.607Z,95374.88
2023-04-05T13:03:00.580Z,95370.53
2023-04-05T13:05:30.353Z,95364.28
2023-04-05T13:07:58.197Z,95358.19
2023-04-05T13:10:27.691Z,95352.72
2023-04-05T13:12:55.712Z,95352.56
2023-04-05T13:15:23.755Z,95336.94
2023-04-05T13:17:53.429Z,95353.00
2023-04-05T13:20:22.542Z,95342.28
2023-04-05T13:22:51.299Z,95334.97
2023-04-05T13:25:19.204Z,95346.53
2023-04-05T13:27:48.668Z,95340.56
2023-04-05T13:30:17.292Z,95353.91
2023-04-05T13:32:45.778Z,95341.09
2023-04-05T13:35:16.239Z,95341.88
2023-04-05T13:37:44.133Z,95339.75
2023-04-05T13:40:12.567Z,95331.91
2023-04-05T13:42:40.448Z,95334.88
2023-04-05T13:45:10.878Z,95340.47
2023-04-05T13:47:38.980Z,95338.88
2023-04-05T13:50:08.164Z,95332.13
2023-04-05T13:52:37.439Z,95337.47
2023-04-05T13:55:05.817Z,95337.44
2023-04-05T13:57:33.636Z,95339.72
2023-04-05T14:02:55.398Z,95323.47
2023-04-05T14:05:23.335Z,95325.88
2023-04-05T14:07:51.311Z,95319.22
2023-04-05T14:10:21.441Z,95317.66
2023-04-05T14:12:49.269Z,95308.50
2023-04-05T14:15:17.365Z,95321.56
2023-04-05T14:17:45.332Z,95319.69
2023-04-05T14:20:14.790Z,95319.88
2023-04-05T14:22:42.701Z,95311.16
2023-04-05T14:25:10.957Z,95319.34
2023-04-05T14:27:42.226Z,95319.19
2023-04-05T14:30:11.555Z,95315.94
2023-04-05T14:32:39.841Z,95313.53
2023-04-05T14:35:08.995Z,95314.84
2023-04-05T14:37:38.356Z,95315.31
2023-04-05T14:40:07.252Z,95306.16
2023-04-05T14:42:48.679Z,95310.28
2023-04-05T14:45:18.095Z,95303.38
2023-04-05T14:47:46.274Z,95303.16
2023-04-05T14:50:14.334Z,95306.66
2023-04-05T14:52:43.750Z,95296.75
2023-04-05T14:55:13.365Z,95309.56
2023-04-05T14:57:41.592Z,95299.19
2023-04-05T15:00:11.338Z,95302.25
2023-04-05T15:02:40.514Z,95300.59
2023-04-05T15:05:09.412Z,95305.00
2023-04-05T15:07:37.358Z,95310.13
2023-04-05T15:10:07.570Z,95304.44
2023-04-05T15:12:36.048Z,95306.47
2023-04-05T15:15:04.149Z,95304.50
2023-04-05T15:17:32.209Z,95307.53
2023-04-05T15:20:00.596Z,95296.75
2023-04-05T15:22:28.502Z,95306.56
2023-04-05T15:24:57.105Z,95299.31
2023-04-05T15:27:26.427Z,95306.88
2023-04-05T15:29:54.380Z,95303.50
2023-04-05T15:32:22.376Z,95308.38
2023-04-05T15:34:50.452Z,95304.19
2023-04-05T15:37:19.204Z,95306.75
2023-04-05T15:39:47.130Z,95296.78
2023-04-05T15:42:15.669Z,95300.28
2023-04-05T15:44:45.323Z,95302.69
2023-04-05T15:47:13.291Z,95307.47
2023-04-05T15:49:41.234Z,95308.19
2023-04-05T15:52:09.977Z,95312.75
2023-04-05T15:54:37.928Z,95314.59
2023-04-05T15:57:06.002Z,95312.16
2023-04-05T15:59:33.922Z,95311.50
2023-04-05T16:02:03.681Z,95310.19
2023-04-05T16:04:31.802Z,95305.81
2023-04-05T16:06:59.700Z,95315.66
2023-04-05T16:09:27.619Z,95308.13
2023-04-05T16:11:55.908Z,95308.16
2023-04-05T16:14:23.945Z,95308.66
2023-04-05T16:16:54.279Z,95300.97
2023-04-05T16:19:24.175Z,95312.72
2023-04-05T16:21:52.846Z,95302.31
2023-04-05T16:24:21.201Z,95318.56
2023-04-05T16:26:49.327Z,95306.84
2023-04-05T16:29:17.288Z,95307.34
2023-04-05T16:31:47.384Z,95315.81
2023-04-05T16:34:15.674Z,95309.41
2023-04-05T16:36:44.990Z,95305.16
2023-04-05T16:39:12.981Z,95314.06
2023-04-05T16:41:41.112Z,95311.66
2023-04-05T16:44:09.274Z,95299.81
2023-04-05T16:46:37.239Z,95304.53
2023-04-05T16:49:05.554Z,95312.91
2023-04-05T16:51:35.235Z,95312.38
2023-04-05T16:54:04.865Z,95318.00
2023-04-05T16:56:32.893Z,95316.53
2023-04-05T16:59:01.317Z,95317.84
2023-04-05T17:01:30.488Z,95327.84
2023-04-05T17:03:59.861Z,95318.44
2023-04-05T17:06:28.997Z,95321.34
2023-04-05T17:08:57.068Z,95315.53
2023-04-05T17:11:28.280Z,95310.13
2023-04-05T17:13:57.559Z,95322.44
2023-04-05T17:16:25.823Z,95324.63
2023-04-05T17:18:54.013Z,95322.22
2023-04-05T17:21:30.908Z,95324.13
2023-04-05T17:24:15.772Z,95327.97
2023-04-05T17:26:45.945Z,95326.38
2023-04-05T17:29:14.670Z,95322.91
2023-04-05T17:31:44.014Z,95325.59
2023-04-05T17:34:14.750Z,95331.63
2023-04-05T17:36:42.641Z,95334.50
2023-04-05T17:39:10.488Z,95327.81
2023-04-05T17:41:38.374Z,95331.34
2023-04-05T17:44:07.630Z,95331.34
2023-04-05T17:46:42.889Z,95337.38
2023-04-05T17:49:14.517Z,95336.13
2023-04-05T17:51:42.497Z,95331.38
2023-04-05T17:54:12.257Z,95334.22
2023-04-05T17:56:40.340Z,95343.13
2023-04-05T17:59:09.966Z,95351.53
2023-04-05T18:01:38.112Z,95347.53
2023-04-05T18:04:06.904Z,95361.47
2023-04-05T18:06:35.799Z,95353.84
2023-04-05T18:09:04.040Z,95354.31
2023-04-05T18:11:32.128Z,95357.97
2023-04-05T18:14:00.048Z,95354.47
2023-04-05T18:16:29.397Z,95358.75
2023-04-05T18:18:57.362Z,95367.00
2023-04-05T18:21:25.819Z,95361.13
2023-04-05T18:23:56.478Z,95370.31
2023-04-05T18:26:24.405Z,95362.66
2023-04-05T18:28:57.755Z,95363.94
2023-04-05T18:31:25.812Z,95376.81
2023-04-05T18:33:55.138Z,95376.94
2023-04-05T18:36:25.537Z,95389.78
2023-04-05T18:38:54.921Z,95380.53
2023-04-05T18:41:22.798Z,95389.22
2023-04-05T18:43:53.993Z,95396.84
2023-04-05T18:46:23.303Z,95396.19
2023-04-05T18:48:54.523Z,95395.19
2023-04-05T18:51:24.649Z,95400.19
2023-04-05T18:53:52.712Z,95407.47
2023-04-05T18:56:21.192Z,95401.41
2023-04-05T18:58:49.908Z,95404.16
2023-04-05T19:01:19.814Z,95407.00
2023-04-05T19:03:48.844Z,95399.81
2023-04-05T19:06:16.827Z,95399.19
2023-04-05T19:08:47.975Z,95406.50
2023-04-05T19:11:18.428Z,95413.19
2023-04-05T19:13:47.474Z,95416.75
2023-04-05T19:16:17.375Z,95422.63
2023-04-05T19:18:45.523Z,95420.38
2023-04-05T19:21:13.768Z,95395.47
2023-04-05T19:23:42.078Z,95415.84
2023-04-05T19:26:12.161Z,95415.25
2023-04-05T19:28:40.236Z,95408.81
2023-04-05T19:31:08.202Z,95416.56
2023-04-05T19:33:36.312Z,95419.59
2023-04-05T19:36:04.523Z,95422.72
2023-04-05T19:38:32.411Z,95427.94
2023-04-05T19:41:00.377Z,95429.81
2023-04-05T19:43:31.653Z,95428.22
2023-04-05T19:46:01.214Z,95435.91
2023-04-05T19:48:36.693Z,95430.50
2023-04-05T19:51:06.699Z,95425.44
2023-04-05T19:53:42.514Z,95424.59
2023-04-05T19:56:13.413Z,95426.94
2023-04-05T19:58:43.387Z,95432.63
2023-04-05T20:01:11.326Z,95429.75
2023-04-05T20:03:40.564Z,95424.56
2023-04-05T20:06:10.728Z,95424.28
2023-04-05T20:08:40.502Z,95428.38
2023-04-05T20:11:11.652Z,95428.84
2023-04-05T20:13:45.008Z,95428.41
2023-04-05T20:16:14.196Z,95425.78
2023-04-05T20:18:46.304Z,95429.94
2023-04-05T20:21:14.514Z,95418.91
2023-04-05T20:23:43.387Z,95429.03
2023-04-05T20:26:14.028Z,95431.03
2023-04-05T20:28:43.187Z,95434.09
2023-04-05T20:31:18.878Z,95430.63
2023-04-05T20:33:49.079Z,95435.16
2023-04-05T20:36:21.098Z,95438.38
2023-04-05T20:38:50.627Z,95425.47
2023-04-05T20:41:20.225Z,95424.00
2023-04-05T20:43:48.627Z,95425.44
2023-04-05T20:46:18.034Z,95422.53
2023-04-05T20:48:46.778Z,95425.19
2023-04-05T20:51:15.800Z,95426.94
2023-04-05T20:53:44.195Z,95426.53
2023-04-05T20:56:13.079Z,95419.34
2023-04-05T20:58:41.938Z,95428.25
2023-04-05T21:01:10.917Z,95426.94
2023-04-05T21:03:42.398Z,95427.19
2023-04-05T21:06:11.227Z,95426.66
2023-04-05T21:08:40.360Z,95426.00
2023-04-05T21:11:10.046Z,95428.13
2023-04-05T21:13:37.925Z,95424.81
2023-04-05T21:16:06.592Z,95429.72
2023-04-05T21:18:34.907Z,95418.94
2023-04-05T21:21:04.445Z,95418.91
2023-04-05T21:23:34.221Z,95421.69
2023-04-05T21:26:04.208Z,95433.00
2023-04-05T21:28:32.392Z,95423.19
2023-04-05T21:31:00.443Z,95429.97
2023-04-05T21:33:28.368Z,95425.72
2023-04-05T21:35:56.493Z,95432.09
2023-04-05T21:38:26.041Z,95426.63
2023-04-05T21:40:55.377Z,95401.72
2023-04-05T21:43:23.690Z,95408.28
2023-04-05T21:45:52.856Z,95406.47
2023-04-05T21:48:21.234Z,95415.69
2023-04-05T21:50:49.128Z,95419.97
2023-04-05T21:53:16.994Z,95429.50
2023-04-05T21:55:46.330Z,95421.53
2023-04-05T21:58:14.224Z,95426.06
2023-04-05T22:00:42.369Z,95423.84
2023-04-05T22:03:10.272Z,95437.81
2023-04-05T22:05:39.063Z,95428.78
2023-04-05T22:08:07.872Z,95423.97
2023-04-05T22:10:37.736Z,95430.91
2023-04-05T22:13:07.083Z,95426.41
2023-04-05T22:15:34.960Z,95427.47
2023-04-05T22:18:03.094Z,95420.53
2023-04-05T22:20:31.223Z,95423.59
2023-04-05T22:22:59.222Z,95426.13
2023-04-05T22:25:27.376Z,95426.00
2023-04-05T22:27:59.635Z,95423.56
2023-04-05T22:30:40.978Z,95428.31
2023-04-05T22:33:12.648Z,95421.94
2023-04-05T22:35:41.023Z,95421.25
2023-04-05T22:38:09.189Z,95418.16
2023-04-05T22:40:37.141Z,95421.41
2023-04-05T22:43:05.099Z,95421.00
2023-04-05T22:45:34.436Z,95425.78
2023-04-05T22:48:02.409Z,95428.56
2023-04-05T22:50:30.502Z,95417.75
2023-04-05T22:52:58.514Z,95420.47
2023-04-05T22:55:26.458Z,95419.03
2023-04-05T22:57:54.362Z,95418.78
2023-04-05T23:00:22.311Z,95414.75
2023-04-05T23:02:51.679Z,95413.00
2023-04-05T23:05:19.654Z,95416.03
2023-04-05T23:07:47.557Z,95412.50
2023-04-05T23:10:15.599Z,95415.13
2023-04-05T23:12:43.785Z,95413.78
2023-04-05T23:15:12.491Z,95409.94
2023-04-05T23:17:40.431Z,95398.06
2023-04-05T23:20:10.983Z,95408.16
2023-04-05T23:22:38.948Z,95412.81
2023-04-05T23:25:07.995Z,95407.28
2023-04-05T23:27:36.004Z,95404.72
2023-04-05T23:30:04.246Z,95421.69
2023-04-05T23:32:32.172Z,95407.28
2023-04-05T23:35:00.112Z,95410.34
2023-04-05T23:37:29.322Z,95412.75
2023-04-05T23:39:57.241Z,95419.38
2023-04-05T23:42:25.539Z,95406.06
2023-04-05T23:44:53.479Z,95411.75
2023-04-05T23:47:21.391Z,95412.94
2023-04-05T23:49:49.293Z,95416.28
2023-04-05T23:52:17.180Z,95408.91
2023-04-05T23:54:46.594Z,95402.44
2023-04-05T23:57:14.442Z,95404.84
2023-04-05T23:59:42.461Z,95415.03
